createdAt,value
2019-03-09T00:00:00.321Z,3.40
2019-03-09T00:02:28.337Z,2.87
2019-03-09T00:04:57.861Z,3.05
2019-03-09T00:07:26.044Z,3.20
2019-03-09T00:09:54.202Z,3.42
2019-03-09T00:12:22.223Z,2.90
2019-03-09T00:14:50.155Z,3.17
2019-03-09T00:17:18.458Z,3.25
2019-03-09T00:19:46.365Z,3.75
2019-03-09T00:22:14.424Z,3.37
2019-03-09T00:25:01.214Z,3.80
2019-03-09T00:27:51.063Z,3.15
2019-03-09T00:30:48.990Z,3.67
2019-03-09T00:33:17.048Z,3.40
2019-03-09T00:35:45.360Z,3.00
2019-03-09T00:38:13.318Z,3.50
2019-03-09T00:40:41.319Z,3.50
2019-03-09T00:43:09.249Z,4.10
2019-03-09T00:45:37.511Z,3.27
2019-03-09T00:48:05.769Z,4.50
2019-03-09T00:50:35.042Z,3.52
2019-03-09T00:53:03.093Z,4.30
2019-03-09T00:55:31.145Z,4.87
2019-03-09T00:57:59.073Z,3.87
2019-03-09T01:00:27.048Z,4.80
2019-03-09T01:02:54.967Z,4.15
2019-03-09T01:05:30.004Z,3.95
2019-03-09T01:07:57.881Z,4.50
2019-03-09T01:10:25.840Z,4.45
2019-03-09T01:12:53.791Z,4.10
2019-03-09T01:15:21.731Z,4.45
2019-03-09T01:17:49.702Z,4.53
2019-03-09T01:20:17.682Z,4.03
2019-03-09T01:22:46.151Z,4.25
2019-03-09T01:25:14.169Z,4.15
2019-03-09T01:27:43.145Z,4.55
2019-03-09T01:30:11.081Z,4.47
2019-03-09T01:32:39.030Z,4.85
2019-03-09T01:35:06.963Z,4.80
2019-03-09T01:37:34.972Z,4.60
2019-03-09T01:40:03.797Z,4.60
2019-03-09T01:42:31.704Z,4.20
2019-03-09T01:44:59.609Z,5.67
2019-03-09T01:47:27.606Z,4.87
2019-03-09T01:49:55.541Z,5.10
2019-03-09T01:52:23.478Z,5.80
2019-03-09T01:54:51.398Z,4.62
2019-03-09T01:57:19.377Z,6.05
2019-03-09T01:59:47.385Z,4.47
2019-03-09T02:02:15.361Z,6.15
2019-03-09T02:04:43.363Z,4.90
2019-03-09T02:07:11.315Z,6.40
2019-03-09T02:09:39.235Z,5.30
2019-03-09T02:12:07.165Z,5.42
2019-03-09T02:14:35.138Z,5.95
2019-03-09T02:17:03.084Z,5.47
2019-03-09T02:19:30.989Z,6.47
2019-03-09T02:21:58.923Z,5.92
2019-03-09T02:24:26.850Z,7.55
2019-03-09T02:26:54.771Z,6.55
2019-03-09T02:29:22.701Z,6.65
2019-03-09T02:31:50.634Z,6.15
2019-03-09T02:34:18.555Z,7.62
2019-03-09T02:36:46.512Z,7.67
2019-03-09T02:39:28.700Z,7.90
2019-03-09T02:41:57.597Z,7.22
2019-03-09T02:44:25.528Z,6.75
2019-03-09T02:46:53.698Z,7.25
2019-03-09T02:49:21.640Z,6.80
2019-03-09T02:51:49.576Z,6.50
2019-03-09T02:54:17.593Z,7.35
2019-03-09T02:56:45.645Z,7.75
2019-03-09T02:59:13.597Z,8.80
2019-03-09T03:01:50.280Z,7.80
2019-03-09T03:04:19.299Z,9.40
2019-03-09T03:06:47.253Z,8.73
2019-03-09T03:09:15.526Z,9.20
2019-03-09T03:11:43.586Z,9.28
2019-03-09T03:14:11.503Z,8.95
2019-03-09T03:16:39.525Z,9.58
2019-03-09T03:19:07.507Z,9.83
2019-03-09T03:21:35.461Z,9.45
2019-03-09T03:24:03.402Z,10.10
2019-03-09T03:26:31.590Z,10.13
2019-03-09T03:28:59.819Z,9.40
2019-03-09T03:31:27.700Z,8.80
2019-03-09T03:33:55.754Z,9.15
2019-03-09T03:36:23.711Z,9.15
2019-03-09T03:38:51.615Z,8.33
2019-03-09T03:41:19.752Z,8.95
2019-03-09T03:43:47.687Z,9.18
2019-03-09T03:46:15.789Z,7.42
2019-03-09T03:48:43.989Z,7.70
2019-03-09T03:51:12.121Z,7.72
2019-03-09T03:53:41.134Z,8.10
2019-03-09T03:56:09.058Z,8.43
2019-03-09T03:58:37.155Z,8.58
2019-03-09T04:01:05.135Z,7.42
2019-03-09T04:03:33.144Z,8.10
2019-03-09T04:06:01.488Z,8.45
2019-03-09T04:08:29.432Z,7.58
2019-03-09T04:10:57.835Z,8.15
2019-03-09T04:13:25.807Z,7.58
2019-03-09T04:15:53.999Z,7.42
2019-03-09T04:18:22.380Z,8.00
2019-03-09T04:20:50.381Z,7.53
2019-03-09T04:23:18.451Z,7.28
2019-03-09T04:25:46.491Z,7.67
2019-03-09T04:28:14.575Z,6.70
2019-03-09T04:30:42.499Z,7.65
2019-03-09T04:33:11.644Z,8.18
2019-03-09T04:35:39.665Z,7.40
2019-03-09T04:38:07.707Z,7.50
2019-03-09T04:40:35.610Z,8.30
2019-03-09T04:43:03.673Z,7.30
2019-03-09T04:45:31.573Z,7.25
2019-03-09T04:47:59.528Z,7.40
2019-03-09T04:50:27.430Z,7.75
2019-03-09T04:52:56.338Z,7.25
2019-03-09T04:55:24.645Z,7.35
2019-03-09T04:57:52.779Z,7.30
2019-03-09T05:00:20.755Z,7.55
2019-03-09T05:02:48.719Z,8.05
2019-03-09T05:05:16.761Z,8.43
2019-03-09T05:07:44.697Z,7.62
2019-03-09T05:10:12.636Z,7.15
2019-03-09T05:12:40.576Z,7.20
2019-03-09T05:15:08.568Z,7.08
2019-03-09T05:17:36.517Z,8.45
2019-03-09T05:20:04.906Z,7.55
2019-03-09T05:22:32.826Z,8.75
2019-03-09T05:25:00.764Z,8.73
2019-03-09T05:27:28.683Z,7.20
2019-03-09T05:29:56.646Z,7.70
2019-03-09T05:32:24.570Z,7.25
2019-03-09T05:34:52.895Z,7.90
2019-03-09T05:37:20.828Z,7.15
2019-03-09T05:39:48.743Z,7.05
2019-03-09T05:42:16.788Z,7.33
2019-03-09T05:44:44.913Z,7.75
2019-03-09T05:47:12.826Z,6.50
2019-03-09T05:49:40.744Z,7.37
2019-03-09T05:52:08.709Z,7.35
2019-03-09T05:54:36.625Z,6.80
2019-03-09T05:57:04.759Z,7.37
2019-03-09T05:59:32.901Z,6.97
2019-03-09T06:02:00.944Z,6.95
2019-03-09T06:04:28.901Z,6.95
2019-03-09T06:06:57.022Z,6.72
2019-03-09T06:09:25.060Z,7.00
2019-03-09T06:11:53.127Z,7.03
2019-03-09T06:14:21.116Z,7.40
2019-03-09T06:16:50.650Z,7.72
2019-03-09T06:19:18.599Z,7.37
2019-03-09T06:21:46.493Z,7.60
2019-03-09T06:24:15.507Z,7.42
2019-03-09T06:26:43.434Z,7.90
2019-03-09T06:29:11.393Z,7.55
2019-03-09T06:31:40.343Z,7.50
2019-03-09T06:34:08.465Z,6.85
2019-03-09T06:36:36.369Z,6.45
2019-03-09T06:39:05.725Z,7.53
2019-03-09T06:41:33.886Z,6.37
2019-03-09T06:44:01.799Z,6.75
2019-03-09T06:46:29.743Z,6.70
2019-03-09T06:48:57.692Z,7.35
2019-03-09T06:51:25.613Z,6.95
2019-03-09T06:53:53.685Z,7.25
2019-03-09T06:56:22.911Z,7.00
2019-03-09T06:58:50.862Z,7.28
2019-03-09T07:01:18.766Z,8.13
2019-03-09T07:03:46.700Z,7.78
2019-03-09T07:06:14.611Z,13.48
2019-03-09T07:08:42.534Z,14.00
2019-03-09T07:11:10.487Z,11.35
2019-03-09T07:13:38.413Z,8.80
2019-03-09T07:16:06.326Z,8.90
2019-03-09T07:18:34.279Z,7.90
2019-03-09T07:21:02.160Z,7.47
2019-03-09T07:23:30.082Z,11.28
2019-03-09T07:25:58.039Z,11.25
2019-03-09T07:28:25.993Z,9.73
2019-03-09T07:30:53.932Z,12.30
2019-03-09T07:33:22.174Z,12.82
2019-03-09T07:35:50.166Z,13.60
2019-03-09T07:38:18.113Z,12.28
2019-03-09T07:40:47.292Z,12.00
2019-03-09T07:43:15.221Z,11.45
2019-03-09T07:45:43.126Z,8.55
2019-03-09T07:48:11.024Z,6.60
2019-03-09T07:50:38.942Z,6.42
2019-03-09T07:53:06.869Z,7.83
2019-03-09T07:55:34.794Z,7.20
2019-03-09T07:58:02.704Z,6.53
2019-03-09T08:00:30.776Z,7.37
2019-03-09T08:02:58.722Z,7.28
2019-03-09T08:05:26.658Z,6.70
2019-03-09T08:07:54.564Z,6.33
2019-03-09T08:10:22.499Z,5.15
2019-03-09T08:12:50.944Z,5.40
2019-03-09T08:15:18.881Z,5.12
2019-03-09T08:17:49.889Z,4.40
2019-03-09T08:20:18.561Z,4.70
2019-03-09T08:26:03.230Z,3.93
2019-03-09T08:28:31.098Z,3.63
2019-03-09T08:30:59.409Z,3.37
2019-03-09T08:33:27.357Z,3.90
2019-03-09T08:35:55.390Z,7.40
2019-03-09T08:38:23.324Z,5.30
2019-03-09T08:40:51.251Z,10.47
2019-03-09T08:43:19.359Z,3.23
2019-03-09T08:45:47.731Z,3.83
2019-03-09T08:48:16.149Z,3.67
2019-03-09T08:50:44.095Z,3.60
2019-03-09T08:53:12.962Z,4.00
2019-03-09T08:55:41.200Z,3.20
2019-03-09T08:58:09.173Z,3.50
2019-03-09T09:00:37.098Z,3.23
2019-03-09T09:03:05.080Z,4.30
2019-03-09T09:05:33.072Z,4.30
2019-03-09T09:08:03.480Z,3.77
2019-03-09T09:10:30.848Z,4.13
2019-03-09T09:12:58.810Z,3.87
2019-03-09T09:15:26.732Z,3.00
2019-03-09T09:17:54.637Z,2.53
2019-03-09T09:20:22.549Z,2.13
2019-03-09T09:22:50.483Z,2.33
2019-03-09T09:25:18.383Z,2.00
2019-03-09T09:27:46.331Z,1.57
2019-03-09T09:30:14.676Z,1.37
2019-03-09T09:32:42.785Z,1.80
2019-03-09T09:35:10.722Z,1.53
2019-03-09T09:37:38.834Z,1.50
2019-03-09T09:40:06.737Z,1.67
2019-03-09T09:42:34.873Z,11.17
2019-03-09T09:45:02.923Z,2.30
2019-03-09T09:47:30.863Z,2.30
2019-03-09T09:49:58.991Z,2.70
2019-03-09T09:52:26.861Z,3.00
2019-03-09T09:54:54.775Z,3.10
2019-03-09T09:57:22.713Z,2.63
2019-03-09T09:59:50.680Z,2.93
2019-03-09T10:02:18.602Z,2.47
2019-03-09T10:04:46.562Z,3.60
2019-03-09T10:07:14.452Z,3.20
2019-03-09T10:09:43.547Z,3.63
2019-03-09T10:12:11.822Z,3.70
2019-03-09T10:14:39.731Z,3.40
2019-03-09T10:17:07.632Z,3.60
2019-03-09T10:19:35.606Z,3.50
2019-03-09T10:22:03.540Z,3.70
2019-03-09T10:24:32.475Z,3.50
2019-03-09T10:27:00.472Z,3.40
2019-03-09T10:29:28.347Z,3.30
2019-03-09T10:31:56.228Z,4.20
2019-03-09T10:34:24.149Z,4.20
2019-03-09T10:36:52.311Z,3.93
2019-03-09T10:39:20.289Z,5.13
2019-03-09T10:41:48.240Z,4.83
2019-03-09T10:44:16.124Z,5.60
2019-03-09T10:46:44.059Z,4.40
2019-03-09T10:49:11.990Z,5.27
2019-03-09T10:51:39.910Z,4.37
2019-03-09T10:54:10.630Z,4.43
2019-03-09T10:56:38.537Z,5.33
2019-03-09T10:59:06.462Z,4.40
2019-03-09T11:01:34.703Z,4.50
2019-03-09T11:04:02.614Z,3.43
2019-03-09T11:06:30.518Z,4.50
2019-03-09T11:08:58.443Z,4.00
2019-03-09T11:11:26.395Z,4.20
2019-03-09T11:13:54.294Z,4.77
2019-03-09T11:16:22.352Z,2.83
2019-03-09T11:18:50.279Z,3.03
2019-03-09T11:21:18.530Z,2.57
2019-03-09T11:23:46.549Z,3.07
2019-03-09T11:26:15.880Z,2.93
2019-03-09T11:28:43.783Z,2.93
2019-03-09T11:31:11.700Z,3.03
2019-03-09T11:33:39.661Z,6.17
2019-03-09T11:36:07.698Z,4.13
2019-03-09T11:38:35.616Z,2.87
2019-03-09T11:41:03.829Z,3.43
2019-03-09T11:43:31.746Z,3.20
2019-03-09T11:46:00.074Z,3.03
2019-03-09T11:48:28.124Z,2.60
2019-03-09T11:50:56.050Z,3.50
2019-03-09T11:53:25.059Z,3.23
2019-03-09T11:55:53.002Z,2.57
2019-03-09T11:58:21.277Z,3.10
2019-03-09T12:00:49.330Z,3.00
2019-03-09T12:03:17.358Z,3.30
2019-03-09T12:05:45.484Z,4.00
2019-03-09T12:08:13.366Z,3.60
2019-03-09T12:10:41.323Z,3.90
2019-03-09T12:13:09.298Z,4.20
2019-03-09T12:15:37.276Z,4.73
2019-03-09T12:18:05.194Z,4.57
2019-03-09T12:20:33.259Z,4.33
2019-03-09T12:23:01.673Z,3.70
2019-03-09T12:25:29.835Z,3.93
2019-03-09T12:27:57.742Z,4.30
2019-03-09T12:30:25.662Z,4.37
2019-03-09T12:32:53.650Z,3.23
2019-03-09T12:35:21.509Z,3.70
2019-03-09T12:37:49.440Z,4.30
2019-03-09T12:40:17.638Z,4.00
2019-03-09T12:42:45.739Z,4.40
2019-03-09T12:45:13.631Z,7.07
2019-03-09T12:47:41.551Z,5.20
2019-03-09T12:50:09.666Z,7.30
2019-03-09T12:52:37.575Z,5.47
2019-03-09T12:55:05.565Z,6.10
2019-03-09T12:57:33.469Z,5.73
2019-03-09T13:00:01.427Z,5.90
2019-03-09T13:02:30.857Z,5.40
2019-03-09T13:04:59.082Z,5.67
2019-03-09T13:07:27.261Z,4.80
2019-03-09T13:09:55.163Z,4.90
2019-03-09T13:12:24.182Z,4.97
2019-03-09T13:14:52.374Z,5.20
2019-03-09T13:17:20.356Z,4.40
2019-03-09T13:19:49.236Z,4.77
2019-03-09T13:22:17.219Z,5.10
2019-03-09T13:24:45.618Z,4.77
2019-03-09T13:27:13.550Z,5.03
2019-03-09T13:29:42.426Z,5.17
2019-03-09T13:32:10.340Z,5.50
2019-03-09T13:34:39.312Z,5.80
2019-03-09T13:37:07.332Z,5.60
2019-03-09T13:39:35.250Z,5.57
2019-03-09T13:42:03.187Z,5.30
2019-03-09T13:44:31.229Z,5.07
2019-03-09T13:46:59.178Z,4.70
2019-03-09T13:49:27.063Z,4.60
2019-03-09T13:51:54.964Z,5.90
2019-03-09T13:54:22.937Z,5.43
2019-03-09T13:56:50.798Z,5.03
2019-03-09T13:59:18.766Z,4.73
2019-03-09T14:01:47.662Z,5.13
2019-03-09T14:04:15.613Z,4.93
2019-03-09T14:06:43.718Z,4.67
2019-03-09T14:09:11.672Z,4.70
2019-03-09T14:11:40.130Z,4.43
2019-03-09T14:14:08.396Z,3.50
2019-03-09T14:16:36.313Z,4.17
2019-03-09T14:19:04.193Z,5.97
2019-03-09T14:21:32.141Z,3.47
2019-03-09T14:24:00.271Z,4.50
2019-03-09T14:26:28.210Z,3.80
2019-03-09T14:28:56.157Z,4.37
2019-03-09T14:31:25.219Z,3.30
2019-03-09T14:33:54.147Z,3.40
2019-03-09T14:36:22.087Z,3.67
2019-03-09T14:38:50.009Z,4.10
2019-03-09T14:41:18.199Z,3.90
2019-03-09T14:43:46.119Z,4.40
2019-03-09T14:46:14.124Z,4.43
2019-03-09T14:48:42.063Z,12.80
2019-03-09T14:51:09.989Z,3.60
2019-03-09T14:53:37.947Z,10.13
2019-03-09T14:56:05.849Z,4.43
2019-03-09T14:58:33.842Z,4.30
2019-03-09T15:01:01.857Z,4.50
2019-03-09T15:03:29.789Z,4.55
2019-03-09T15:05:58.680Z,3.70
2019-03-09T15:08:26.702Z,4.63
2019-03-09T15:10:54.647Z,4.97
2019-03-09T15:13:23.505Z,3.50
2019-03-09T15:15:51.456Z,4.10
2019-03-09T15:18:19.468Z,3.80
2019-03-09T15:20:47.541Z,3.80
2019-03-09T15:23:16.004Z,3.43
2019-03-09T15:25:43.886Z,4.20
2019-03-09T15:28:11.820Z,3.70
2019-03-09T15:30:40.823Z,3.97
2019-03-09T15:33:08.735Z,4.40
2019-03-09T15:35:37.742Z,3.60
2019-03-09T15:38:05.726Z,3.63
2019-03-09T15:40:33.624Z,4.20
2019-03-09T15:43:01.555Z,3.80
2019-03-09T15:45:30.693Z,4.47
2019-03-09T15:47:58.639Z,4.97
2019-03-09T15:50:26.781Z,4.30
2019-03-09T15:52:54.709Z,4.30
2019-03-09T15:55:22.729Z,4.07
2019-03-09T15:57:51.740Z,4.10
2019-03-09T16:00:19.894Z,3.70
2019-03-09T16:02:48.333Z,3.63
2019-03-09T16:05:16.292Z,4.17
2019-03-09T16:07:44.268Z,3.93
2019-03-09T16:10:12.219Z,3.30
2019-03-09T16:12:40.237Z,3.20
2019-03-09T16:15:08.647Z,3.50
2019-03-09T16:17:39.141Z,3.83
2019-03-09T16:20:07.093Z,3.20
2019-03-09T16:22:36.075Z,2.90
2019-03-09T16:25:04.034Z,3.07
2019-03-09T16:27:31.991Z,2.33
2019-03-09T16:30:00.016Z,2.40
2019-03-09T16:32:27.915Z,2.60
2019-03-09T16:34:55.870Z,2.30
2019-03-09T16:37:23.792Z,2.37
2019-03-09T16:39:51.767Z,2.63
2019-03-09T16:42:20.167Z,2.00
2019-03-09T16:44:48.388Z,3.00
2019-03-09T16:47:16.283Z,2.20
2019-03-09T16:49:44.273Z,2.83
2019-03-09T16:52:12.245Z,2.33
2019-03-09T16:54:41.422Z,2.40
2019-03-09T16:57:09.531Z,2.27
2019-03-09T16:59:37.506Z,2.73
2019-03-09T17:02:05.475Z,2.23
2019-03-09T17:04:33.536Z,2.83
2019-03-09T17:07:01.458Z,2.67
2019-03-09T17:09:30.448Z,2.80
2019-03-09T17:11:58.410Z,2.80
2019-03-09T17:14:26.329Z,2.33
2019-03-09T17:16:54.450Z,2.37
2019-03-09T17:19:23.342Z,2.20
2019-03-09T17:21:51.376Z,2.43
2019-03-09T17:24:19.302Z,2.80
2019-03-09T17:26:47.228Z,2.20
2019-03-09T17:29:15.170Z,2.50
2019-03-09T17:31:43.124Z,2.57
2019-03-09T17:34:11.067Z,2.53
2019-03-09T17:36:40.189Z,2.40
2019-03-09T17:39:09.264Z,2.50
2019-03-09T17:41:37.235Z,2.40
2019-03-09T17:44:05.318Z,2.47
2019-03-09T17:46:33.246Z,2.87
2019-03-09T17:49:01.339Z,2.63
2019-03-09T17:51:29.623Z,2.90
2019-03-09T17:53:57.690Z,2.30
2019-03-09T17:56:25.799Z,2.40
2019-03-09T17:58:53.987Z,2.40
2019-03-09T18:01:22.553Z,2.60
2019-03-09T18:03:50.635Z,2.53
2019-03-09T18:06:18.728Z,2.33
2019-03-09T18:08:46.684Z,2.30
2019-03-09T18:11:14.583Z,2.20
2019-03-09T18:13:45.724Z,2.70
2019-03-09T18:16:13.670Z,2.70
2019-03-09T18:18:41.802Z,2.70
2019-03-09T18:21:09.929Z,2.27
2019-03-09T18:23:37.858Z,2.43
2019-03-09T18:26:05.795Z,2.23
2019-03-09T18:28:33.763Z,3.63
2019-03-09T18:31:01.757Z,2.77
2019-03-09T18:33:29.650Z,2.33
2019-03-09T18:35:57.534Z,2.37
2019-03-09T18:38:25.454Z,2.40
2019-03-09T18:40:53.663Z,2.70
2019-03-09T18:43:21.580Z,2.73
2019-03-09T18:45:49.568Z,2.63
2019-03-09T18:48:17.501Z,3.00
2019-03-09T18:50:45.443Z,2.70
2019-03-09T18:53:13.372Z,2.50
2019-03-09T18:55:41.289Z,2.87
2019-03-09T18:58:09.241Z,2.50
2019-03-09T19:00:37.371Z,2.20
2019-03-09T19:03:05.354Z,2.70
2019-03-09T19:05:33.465Z,2.17
2019-03-09T19:08:01.351Z,2.13
2019-03-09T19:10:29.277Z,2.20
2019-03-09T19:12:57.902Z,2.87
2019-03-09T19:15:25.936Z,2.30
2019-03-09T19:17:54.117Z,2.53
2019-03-09T19:20:22.064Z,2.47
2019-03-09T19:22:49.999Z,2.60
2019-03-09T19:25:20.756Z,2.55
2019-03-09T19:27:48.685Z,2.30
2019-03-09T19:30:16.595Z,2.47
2019-03-09T19:32:44.700Z,2.23
2019-03-09T19:35:12.853Z,2.42
2019-03-09T19:37:40.848Z,2.30
2019-03-09T19:40:08.790Z,2.73
2019-03-09T19:42:36.799Z,2.50
2019-03-09T19:45:04.782Z,3.25
2019-03-09T19:47:32.985Z,2.80
2019-03-09T19:50:01.005Z,2.50
2019-03-09T19:52:31.930Z,3.58
2019-03-09T19:55:00.738Z,3.10
2019-03-09T19:57:30.295Z,3.15
2019-03-09T19:59:58.437Z,3.00
2019-03-09T20:02:26.494Z,2.67
2019-03-09T20:04:54.505Z,3.00
2019-03-09T20:07:22.456Z,3.10
2019-03-09T20:09:50.423Z,2.97
2019-03-09T20:12:24.117Z,3.37
2019-03-09T20:14:53.690Z,2.70
2019-03-09T20:17:21.632Z,3.37
2019-03-09T20:19:50.777Z,3.20
2019-03-09T20:22:18.737Z,3.10
2019-03-09T20:24:47.796Z,2.80
2019-03-09T20:27:15.861Z,3.20
2019-03-09T20:29:43.841Z,2.80
2019-03-09T20:32:11.960Z,3.00
2019-03-09T20:34:42.811Z,3.20
2019-03-09T20:37:11.412Z,2.70
2019-03-09T20:39:40.526Z,3.00
2019-03-09T20:42:09.602Z,2.83
2019-03-09T20:44:37.539Z,2.87
2019-03-09T20:47:05.492Z,2.80
2019-03-09T20:49:33.471Z,3.60
2019-03-09T20:52:01.623Z,3.52
2019-03-09T20:54:33.021Z,3.02
2019-03-09T20:57:04.350Z,3.02
2019-03-09T20:59:32.852Z,2.90
2019-03-09T21:02:00.970Z,2.60
2019-03-09T21:04:28.936Z,3.00
2019-03-09T21:06:57.371Z,2.50
2019-03-09T21:09:25.353Z,2.40
2019-03-09T21:11:53.275Z,2.80
2019-03-09T21:14:21.234Z,3.30
2019-03-09T21:16:49.226Z,2.87
2019-03-09T21:19:17.179Z,3.10
2019-03-09T21:21:47.303Z,3.15
2019-03-09T21:24:15.214Z,3.40
2019-03-09T21:26:43.450Z,3.27
2019-03-09T21:29:11.523Z,3.40
2019-03-09T21:31:39.463Z,2.90
2019-03-09T21:34:07.445Z,3.50
2019-03-09T21:36:35.435Z,3.27
2019-03-09T21:39:04.431Z,2.70
2019-03-09T21:41:32.341Z,3.02
2019-03-09T21:44:00.553Z,3.40
2019-03-09T21:46:28.523Z,3.30
2019-03-09T21:48:56.512Z,3.40
2019-03-09T21:51:24.656Z,3.10
2019-03-09T21:53:52.540Z,2.80
2019-03-09T21:56:20.500Z,2.90
2019-03-09T21:58:48.501Z,2.80
2019-03-09T22:01:16.630Z,2.70
2019-03-09T22:03:45.748Z,3.10
2019-03-09T22:06:13.769Z,2.67
2019-03-09T22:08:41.778Z,2.45
2019-03-09T22:11:09.924Z,2.77
2019-03-09T22:13:37.874Z,2.55
2019-03-09T22:16:05.963Z,1.85
2019-03-09T22:18:33.911Z,2.05
2019-03-09T22:21:01.920Z,2.55
2019-03-09T22:23:31.133Z,2.30
2019-03-09T22:25:59.069Z,1.95
2019-03-09T22:28:27.087Z,2.00
2019-03-09T22:31:02.985Z,2.45
2019-03-09T22:33:30.929Z,2.10
2019-03-09T22:35:58.868Z,2.10
2019-03-09T22:38:27.994Z,2.45
2019-03-09T22:40:56.641Z,2.10
2019-03-09T22:43:24.831Z,1.90
2019-03-09T22:45:55.256Z,2.47
2019-03-09T22:48:23.843Z,2.40
2019-03-09T22:50:52.012Z,2.50
2019-03-09T22:53:21.544Z,2.62
2019-03-09T22:55:50.071Z,2.02
2019-03-09T22:58:18.202Z,2.17
2019-03-09T23:00:47.220Z,2.17
2019-03-09T23:03:15.416Z,2.13
2019-03-09T23:05:43.623Z,2.00
2019-03-09T23:08:17.642Z,2.10
2019-03-09T23:10:43.029Z,2.20
2019-03-09T23:13:11.325Z,2.57
2019-03-09T23:15:39.307Z,2.22
2019-03-09T23:18:07.581Z,2.20
2019-03-09T23:20:36.148Z,2.50
2019-03-09T23:23:04.779Z,2.33
2019-03-09T23:25:33.193Z,2.20
2019-03-09T23:28:01.308Z,2.40
2019-03-09T23:30:29.243Z,2.55
2019-03-09T23:32:58.092Z,2.30
2019-03-09T23:35:26.027Z,2.15
2019-03-09T23:37:54.178Z,2.33
2019-03-09T23:40:23.032Z,2.67
2019-03-09T23:42:50.936Z,1.97
2019-03-09T23:45:18.914Z,2.33
2019-03-09T23:47:46.849Z,2.62
2019-03-09T23:50:14.833Z,2.20
2019-03-09T23:52:42.770Z,2.10
2019-03-09T23:55:20.756Z,2.77
2019-03-09T23:57:41.346Z,2.63
